X  Zavřít Letištní data METAR     LKTB Brno-Tuřany Airport
Teplota
17°C Teplota
9°C Rosný bod
59% Vlhkost



Vítr
24 KM/H
15 MPH
7 M/S
13 KTS



280°
Z
Aktuální stav

Skoro zataženo Skoro zataženo
Tlak 1012.92 (hPa) - 29.91 (inHg)
Viditelnost 6.2 (mil) - 10 (km)
Letiště
Kód letiště LKTB

Umístění: Brno-Tuřany Airport
Vzdálenost: 25 (km)

Metar:
LKTB 240530Z 28013KT 9999 BKN035 17/09 Q1013 NOSIG

Čas: 24-09-2021 07:30 CEST